Redings Mill, Missouri
Current Conditions -  °F | °C
As of 2:53 PM on Friday 24 Oct 2014 (Local Time) from KJLN Reporting Station
Clear Clear  
Wind Chill: 74°   Ceiling: Unl
Heat Index: 74°   Visibility: 10mi
Dew Point: 61°   Wind: 10mph
Humidity: 64%   Direction: 220°SW
Pressure: 30.05"   Gusts: NA
Location:  37.1074°N, 94.5218°W
Report Text: KJLN 241953Z 22009KT 10SM CLR 23/16 A3005 RMK AO2 SLP171 T02330161
Loading
Personal Weather Stations






























Interactive Weather Map
Tropical Storm Tracking
New forecast layout! Learn more

10-Day Weather Forecast

Advertisements
Track Severe Weather on mobile